Terminal Aerodrome Forecast
Issued by NWS

Home | Current Version | Previous Version | Text Only | Print | Product List | Glossary On
Versions: 1 2 3 4 5 6 7 8 9 10 11 12 13 14 15 16 17 18 19 20 21 22 23 24 25 26 27 28 29 30 31 32 33 34 35 36 37 38 39 40
000
FTUS41 KBOX 250919 AAA
TAFBAF
TAF AMD
KBAF 250919Z 2509/2606 17008KT P6SM OVC005
     FM251400 16010KT P6SM BKN060
     FM252000 16009KT P6SM VCSH BKN030
     FM252200 17008KT 4SM -SHRA BR OVC008
     FM260300 30009KT P6SM VCSH OVC060
     FM260500 30010G26KT P6SM BKN200=

USA.gov is the U.S. government's official web portal to all federal, state and local government web resources and services.